sensor_id;sensor_type;location;lat;lon;timestamp;P1;durP1;ratioP1;P2;durP2;ratioP2
15669;SDS011;18524;45.190;5.732;2024-03-02T00:03:55;5.03;;;3.90;;
15669;SDS011;18524;45.190;5.732;2024-03-02T00:08:45;4.23;;;3.83;;
15669;SDS011;18524;45.190;5.732;2024-03-02T00:13:36;4.80;;;3.90;;
15669;SDS011;18524;45.190;5.732;2024-03-02T00:18:30;7.33;;;6.50;;
15669;SDS011;18524;45.190;5.732;2024-03-02T00:23:21;12.60;;;8.60;;
15669;SDS011;18524;45.190;5.732;2024-03-02T00:28:22;14.40;;;9.70;;
15669;SDS011;18524;45.190;5.732;2024-03-02T00:33:14;12.20;;;9.67;;
15669;SDS011;18524;45.190;5.732;2024-03-02T00:38:05;13.90;;;9.67;;
15669;SDS011;18524;45.190;5.732;2024-03-02T00:42:58;11.80;;;9.57;;
15669;SDS011;18524;45.190;5.732;2024-03-02T00:47:49;12.30;;;9.67;;
15669;SDS011;18524;45.190;5.732;2024-03-02T00:52:40;12.20;;;9.90;;
15669;SDS011;18524;45.190;5.732;2024-03-02T00:57:31;10.17;;;8.53;;
15669;SDS011;18524;45.190;5.732;2024-03-02T01:02:24;12.23;;;9.83;;
15669;SDS011;18524;45.190;5.732;2024-03-02T01:07:14;11.63;;;8.47;;
15669;SDS011;18524;45.190;5.732;2024-03-02T01:12:05;12.23;;;8.43;;
15669;SDS011;18524;45.190;5.732;2024-03-02T01:16:55;9.43;;;8.20;;
15669;SDS011;18524;45.190;5.732;2024-03-02T01:21:46;10.03;;;7.77;;
15669;SDS011;18524;45.190;5.732;2024-03-02T01:26:36;11.27;;;8.87;;
15669;SDS011;18524;45.190;5.732;2024-03-02T01:31:26;9.60;;;7.60;;
15669;SDS011;18524;45.190;5.732;2024-03-02T01:36:17;10.27;;;8.23;;
15669;SDS011;18524;45.190;5.732;2024-03-02T01:41:07;11.23;;;8.63;;
15669;SDS011;18524;45.190;5.732;2024-03-02T01:45:57;10.80;;;8.30;;
15669;SDS011;18524;45.190;5.732;2024-03-02T01:50:48;13.00;;;8.50;;
15669;SDS011;18524;45.190;5.732;2024-03-02T01:55:39;10.50;;;8.23;;
15669;SDS011;18524;45.190;5.732;2024-03-02T02:00:29;10.73;;;8.93;;
15669;SDS011;18524;45.190;5.732;2024-03-02T02:05:20;11.37;;;9.43;;
15669;SDS011;18524;45.190;5.732;2024-03-02T02:10:10;12.17;;;9.60;;
15669;SDS011;18524;45.190;5.732;2024-03-02T02:15:01;11.93;;;9.60;;
15669;SDS011;18524;45.190;5.732;2024-03-02T02:19:52;12.47;;;9.17;;
15669;SDS011;18524;45.190;5.732;2024-03-02T02:24:42;12.27;;;9.50;;
15669;SDS011;18524;45.190;5.732;2024-03-02T02:29:33;11.07;;;9.47;;
15669;SDS011;18524;45.190;5.732;2024-03-02T02:34:24;11.17;;;9.27;;
15669;SDS011;18524;45.190;5.732;2024-03-02T02:39:15;11.53;;;9.03;;
15669;SDS011;18524;45.190;5.732;2024-03-02T02:44:07;11.97;;;9.13;;
15669;SDS011;18524;45.190;5.732;2024-03-02T02:48:57;10.70;;;8.93;;
15669;SDS011;18524;45.190;5.732;2024-03-02T02:53:48;12.13;;;9.90;;
15669;SDS011;18524;45.190;5.732;2024-03-02T02:58:39;12.13;;;9.20;;
15669;SDS011;18524;45.190;5.732;2024-03-02T03:03:31;11.30;;;9.07;;
15669;SDS011;18524;45.190;5.732;2024-03-02T03:08:21;11.53;;;9.00;;
15669;SDS011;18524;45.190;5.732;2024-03-02T03:13:13;11.10;;;8.90;;
15669;SDS011;18524;45.190;5.732;2024-03-02T03:18:04;11.93;;;9.30;;
15669;SDS011;18524;45.190;5.732;2024-03-02T03:22:55;10.43;;;8.50;;
15669;SDS011;18524;45.190;5.732;2024-03-02T03:27:45;10.10;;;8.67;;
15669;SDS011;18524;45.190;5.732;2024-03-02T03:32:36;10.80;;;9.10;;
15669;SDS011;18524;45.190;5.732;2024-03-02T03:37:26;10.90;;;9.00;;
15669;SDS011;18524;45.190;5.732;2024-03-02T03:42:22;10.80;;;8.53;;
15669;SDS011;18524;45.190;5.732;2024-03-02T03:47:12;10.73;;;8.70;;
15669;SDS011;18524;45.190;5.732;2024-03-02T03:52:03;9.93;;;8.60;;
15669;SDS011;18524;45.190;5.732;2024-03-02T03:56:54;10.03;;;8.77;;
15669;SDS011;18524;45.190;5.732;2024-03-02T04:01:44;12.17;;;8.23;;
15669;SDS011;18524;45.190;5.732;2024-03-02T04:06:34;10.83;;;8.53;;
15669;SDS011;18524;45.190;5.732;2024-03-02T04:11:25;11.20;;;8.80;;
15669;SDS011;18524;45.190;5.732;2024-03-02T04:16:15;10.73;;;8.10;;
15669;SDS011;18524;45.190;5.732;2024-03-02T04:21:06;10.17;;;8.57;;
15669;SDS011;18524;45.190;5.732;2024-03-02T04:25:56;12.03;;;8.77;;
15669;SDS011;18524;45.190;5.732;2024-03-02T04:30:46;9.60;;;8.10;;
15669;SDS011;18524;45.190;5.732;2024-03-02T04:35:37;10.10;;;8.80;;
15669;SDS011;18524;45.190;5.732;2024-03-02T04:40:27;10.53;;;8.47;;
15669;SDS011;18524;45.190;5.732;2024-03-02T04:45:18;11.90;;;8.80;;
15669;SDS011;18524;45.190;5.732;2024-03-02T04:50:09;11.23;;;9.10;;
15669;SDS011;18524;45.190;5.732;2024-03-02T04:55:00;9.93;;;8.80;;
15669;SDS011;18524;45.190;5.732;2024-03-02T05:00:06;10.20;;;8.83;;
15669;SDS011;18524;45.190;5.732;2024-03-02T05:04:58;10.73;;;8.77;;
15669;SDS011;18524;45.190;5.732;2024-03-02T05:09:49;11.00;;;8.67;;
15669;SDS011;18524;45.190;5.732;2024-03-02T05:14:39;9.03;;;7.70;;
15669;SDS011;18524;45.190;5.732;2024-03-02T05:19:30;10.30;;;8.27;;
15669;SDS011;18524;45.190;5.732;2024-03-02T05:24:20;10.63;;;8.77;;
15669;SDS011;18524;45.190;5.732;2024-03-02T05:29:10;10.77;;;8.57;;
15669;SDS011;18524;45.190;5.732;2024-03-02T05:34:01;10.07;;;8.73;;
15669;SDS011;18524;45.190;5.732;2024-03-02T05:38:51;10.60;;;8.73;;
15669;SDS011;18524;45.190;5.732;2024-03-02T05:43:41;12.83;;;9.60;;
15669;SDS011;18524;45.190;5.732;2024-03-02T05:48:32;9.80;;;8.80;;
15669;SDS011;18524;45.190;5.732;2024-03-02T05:53:22;10.20;;;9.17;;
15669;SDS011;18524;45.190;5.732;2024-03-02T05:58:13;12.67;;;9.93;;
15669;SDS011;18524;45.190;5.732;2024-03-02T06:03:17;11.80;;;9.53;;
15669;SDS011;18524;45.190;5.732;2024-03-02T06:08:08;11.33;;;9.43;;
15669;SDS011;18524;45.190;5.732;2024-03-02T06:12:58;11.27;;;9.07;;
15669;SDS011;18524;45.190;5.732;2024-03-02T06:17:49;11.63;;;9.10;;
15669;SDS011;18524;45.190;5.732;2024-03-02T06:22:39;11.43;;;8.40;;
15669;SDS011;18524;45.190;5.732;2024-03-02T06:27:29;10.63;;;8.57;;
15669;SDS011;18524;45.190;5.732;2024-03-02T06:32:20;9.97;;;8.30;;
15669;SDS011;18524;45.190;5.732;2024-03-02T06:37:10;10.63;;;8.80;;
15669;SDS011;18524;45.190;5.732;2024-03-02T06:42:00;10.90;;;8.93;;
15669;SDS011;18524;45.190;5.732;2024-03-02T06:46:51;10.93;;;8.97;;
15669;SDS011;18524;45.190;5.732;2024-03-02T06:51:41;10.73;;;9.50;;
15669;SDS011;18524;45.190;5.732;2024-03-02T06:56:32;11.33;;;9.87;;
15669;SDS011;18524;45.190;5.732;2024-03-02T07:01:23;11.17;;;9.40;;
15669;SDS011;18524;45.190;5.732;2024-03-02T07:06:15;13.30;;;10.23;;
15669;SDS011;18524;45.190;5.732;2024-03-02T07:11:05;11.90;;;9.57;;
15669;SDS011;18524;45.190;5.732;2024-03-02T07:15:56;12.90;;;9.17;;
15669;SDS011;18524;45.190;5.732;2024-03-02T07:20:52;12.60;;;9.70;;
15669;SDS011;18524;45.190;5.732;2024-03-02T07:25:42;14.17;;;9.63;;
15669;SDS011;18524;45.190;5.732;2024-03-02T07:30:33;12.60;;;10.73;;
15669;SDS011;18524;45.190;5.732;2024-03-02T07:35:24;13.37;;;11.23;;
15669;SDS011;18524;45.190;5.732;2024-03-02T07:40:17;11.97;;;9.23;;
15669;SDS011;18524;45.190;5.732;2024-03-02T07:45:07;11.53;;;9.43;;
15669;SDS011;18524;45.190;5.732;2024-03-02T07:49:58;10.87;;;9.13;;
15669;SDS011;18524;45.190;5.732;2024-03-02T07:54:48;9.80;;;8.80;;
15669;SDS011;18524;45.190;5.732;2024-03-02T07:59:39;10.27;;;8.83;;
15669;SDS011;18524;45.190;5.732;2024-03-02T08:04:29;11.07;;;8.33;;
15669;SDS011;18524;45.190;5.732;2024-03-02T08:09:19;10.23;;;8.17;;
15669;SDS011;18524;45.190;5.732;2024-03-02T08:14:10;11.13;;;8.53;;
15669;SDS011;18524;45.190;5.732;2024-03-02T08:19:00;11.50;;;9.13;;
15669;SDS011;18524;45.190;5.732;2024-03-02T08:23:51;9.93;;;8.73;;
15669;SDS011;18524;45.190;5.732;2024-03-02T08:28:42;8.87;;;7.93;;
15669;SDS011;18524;45.190;5.732;2024-03-02T08:33:33;7.73;;;6.57;;
15669;SDS011;18524;45.190;5.732;2024-03-02T08:38:23;7.20;;;5.73;;
15669;SDS011;18524;45.190;5.732;2024-03-02T08:43:14;7.17;;;5.43;;
15669;SDS011;18524;45.190;5.732;2024-03-02T08:48:08;6.40;;;5.70;;
15669;SDS011;18524;45.190;5.732;2024-03-02T08:52:58;6.43;;;5.80;;
15669;SDS011;18524;45.190;5.732;2024-03-02T08:57:49;8.03;;;6.57;;
15669;SDS011;18524;45.190;5.732;2024-03-02T09:02:40;5.97;;;5.37;;
15669;SDS011;18524;45.190;5.732;2024-03-02T09:07:30;5.40;;;4.90;;
15669;SDS011;18524;45.190;5.732;2024-03-02T09:12:21;5.67;;;5.03;;
15669;SDS011;18524;45.190;5.732;2024-03-02T09:17:11;6.60;;;4.80;;
15669;SDS011;18524;45.190;5.732;2024-03-02T09:22:02;4.93;;;4.27;;
15669;SDS011;18524;45.190;5.732;2024-03-02T09:26:55;5.07;;;4.37;;
15669;SDS011;18524;45.190;5.732;2024-03-02T09:31:45;4.70;;;4.20;;
15669;SDS011;18524;45.190;5.732;2024-03-02T09:36:36;5.50;;;4.50;;
15669;SDS011;18524;45.190;5.732;2024-03-02T09:41:26;4.53;;;4.10;;
15669;SDS011;18524;45.190;5.732;2024-03-02T09:46:17;5.10;;;4.60;;
15669;SDS011;18524;45.190;5.732;2024-03-02T09:51:09;4.73;;;4.33;;
15669;SDS011;18524;45.190;5.732;2024-03-02T09:56:00;4.70;;;4.20;;
15669;SDS011;18524;45.190;5.732;2024-03-02T10:00:51;5.97;;;5.37;;
15669;SDS011;18524;45.190;5.732;2024-03-02T10:05:41;8.23;;;7.30;;
15669;SDS011;18524;45.190;5.732;2024-03-02T10:10:36;5.57;;;5.00;;
15669;SDS011;18524;45.190;5.732;2024-03-02T10:15:29;6.37;;;5.13;;
15669;SDS011;18524;45.190;5.732;2024-03-02T10:20:26;6.40;;;5.10;;
15669;SDS011;18524;45.190;5.732;2024-03-02T10:25:28;6.87;;;4.97;;
15669;SDS011;18524;45.190;5.732;2024-03-02T10:30:22;4.70;;;3.90;;
15669;SDS011;18524;45.190;5.732;2024-03-02T10:35:13;8.20;;;3.90;;
15669;SDS011;18524;45.190;5.732;2024-03-02T10:40:04;3.87;;;3.47;;
15669;SDS011;18524;45.190;5.732;2024-03-02T10:44:55;4.27;;;3.87;;
15669;SDS011;18524;45.190;5.732;2024-03-02T10:49:46;4.27;;;3.83;;
15669;SDS011;18524;45.190;5.732;2024-03-02T10:54:38;4.00;;;3.60;;
15669;SDS011;18524;45.190;5.732;2024-03-02T11:04:27;3.87;;;3.33;;
15669;SDS011;18524;45.190;5.732;2024-03-02T11:09:22;2.60;;;2.40;;
15669;SDS011;18524;45.190;5.732;2024-03-02T11:14:16;3.70;;;2.70;;
15669;SDS011;18524;45.190;5.732;2024-03-02T11:19:10;4.03;;;2.73;;
15669;SDS011;18524;45.190;5.732;2024-03-02T11:34:29;4.00;;;3.10;;
15669;SDS011;18524;45.190;5.732;2024-03-02T11:39:20;5.23;;;3.63;;
15669;SDS011;18524;45.190;5.732;2024-03-02T11:44:11;2.90;;;2.70;;
15669;SDS011;18524;45.190;5.732;2024-03-02T11:49:02;2.70;;;2.40;;
15669;SDS011;18524;45.190;5.732;2024-03-02T11:53:52;2.63;;;2.20;;
15669;SDS011;18524;45.190;5.732;2024-03-02T11:58:45;2.07;;;1.87;;
15669;SDS011;18524;45.190;5.732;2024-03-02T12:03:37;1.83;;;1.53;;
15669;SDS011;18524;45.190;5.732;2024-03-02T12:08:28;2.17;;;1.97;;
15669;SDS011;18524;45.190;5.732;2024-03-02T12:13:18;3.30;;;2.00;;
15669;SDS011;18524;45.190;5.732;2024-03-02T12:18:08;1.73;;;1.50;;
15669;SDS011;18524;45.190;5.732;2024-03-02T12:23:00;2.00;;;1.80;;
15669;SDS011;18524;45.190;5.732;2024-03-02T12:27:53;2.53;;;1.70;;
15669;SDS011;18524;45.190;5.732;2024-03-02T12:32:45;2.37;;;1.40;;
15669;SDS011;18524;45.190;5.732;2024-03-02T12:37:41;1.40;;;1.30;;
15669;SDS011;18524;45.190;5.732;2024-03-02T12:42:32;0.60;;;0.60;;
15669;SDS011;18524;45.190;5.732;2024-03-02T12:47:23;1.17;;;0.50;;
15669;SDS011;18524;45.190;5.732;2024-03-02T12:52:13;0.97;;;0.40;;
15669;SDS011;18524;45.190;5.732;2024-03-02T12:57:04;1.07;;;0.27;;
15669;SDS011;18524;45.190;5.732;2024-03-02T13:01:55;0.30;;;0.20;;
15669;SDS011;18524;45.190;5.732;2024-03-02T13:06:48;0.90;;;0.30;;
15669;SDS011;18524;45.190;5.732;2024-03-02T13:11:38;0.50;;;0.30;;
15669;SDS011;18524;45.190;5.732;2024-03-02T13:16:29;0.60;;;0.30;;
15669;SDS011;18524;45.190;5.732;2024-03-02T13:21:19;0.60;;;0.37;;
15669;SDS011;18524;45.190;5.732;2024-03-02T13:26:09;0.60;;;0.30;;
15669;SDS011;18524;45.190;5.732;2024-03-02T13:31:02;0.90;;;0.37;;
15669;SDS011;18524;45.190;5.732;2024-03-02T13:35:53;0.60;;;0.30;;
15669;SDS011;18524;45.190;5.732;2024-03-02T13:40:43;0.80;;;0.30;;
15669;SDS011;18524;45.190;5.732;2024-03-02T13:45:33;0.63;;;0.40;;
15669;SDS011;18524;45.190;5.732;2024-03-02T13:50:24;0.80;;;0.40;;
15669;SDS011;18524;45.190;5.732;2024-03-02T13:55:14;0.40;;;0.30;;
15669;SDS011;18524;45.190;5.732;2024-03-02T14:00:05;0.47;;;0.40;;
15669;SDS011;18524;45.190;5.732;2024-03-02T14:05:00;0.50;;;0.40;;
15669;SDS011;18524;45.190;5.732;2024-03-02T14:09:50;0.97;;;0.20;;
15669;SDS011;18524;45.190;5.732;2024-03-02T14:14:41;0.60;;;0.40;;
15669;SDS011;18524;45.190;5.732;2024-03-02T14:19:32;0.70;;;0.40;;
15669;SDS011;18524;45.190;5.732;2024-03-02T14:24:22;1.03;;;0.50;;
15669;SDS011;18524;45.190;5.732;2024-03-02T14:29:15;0.90;;;0.70;;
15669;SDS011;18524;45.190;5.732;2024-03-02T14:34:06;1.67;;;0.47;;
15669;SDS011;18524;45.190;5.732;2024-03-02T14:38:56;0.90;;;0.50;;
15669;SDS011;18524;45.190;5.732;2024-03-02T14:43:47;0.90;;;0.50;;
15669;SDS011;18524;45.190;5.732;2024-03-02T14:48:38;1.90;;;0.80;;
15669;SDS011;18524;45.190;5.732;2024-03-02T14:53:28;0.77;;;0.60;;
15669;SDS011;18524;45.190;5.732;2024-03-02T14:58:19;0.60;;;0.43;;
15669;SDS011;18524;45.190;5.732;2024-03-02T15:03:09;1.13;;;0.50;;
15669;SDS011;18524;45.190;5.732;2024-03-02T15:08:01;0.87;;;0.63;;
15669;SDS011;18524;45.190;5.732;2024-03-02T15:12:54;0.50;;;0.50;;
15669;SDS011;18524;45.190;5.732;2024-03-02T15:17:44;0.80;;;0.37;;
15669;SDS011;18524;45.190;5.732;2024-03-02T15:22:35;0.80;;;0.60;;
15669;SDS011;18524;45.190;5.732;2024-03-02T15:27:25;2.33;;;0.30;;
15669;SDS011;18524;45.190;5.732;2024-03-02T15:32:17;0.67;;;0.30;;
15669;SDS011;18524;45.190;5.732;2024-03-02T15:37:07;1.30;;;0.47;;
15669;SDS011;18524;45.190;5.732;2024-03-02T15:41:58;1.07;;;0.50;;
15669;SDS011;18524;45.190;5.732;2024-03-02T15:46:48;2.63;;;0.60;;
15669;SDS011;18524;45.190;5.732;2024-03-02T15:51:38;1.47;;;0.70;;
15669;SDS011;18524;45.190;5.732;2024-03-02T15:56:33;0.73;;;0.30;;
15669;SDS011;18524;45.190;5.732;2024-03-02T16:01:24;1.17;;;0.53;;
15669;SDS011;18524;45.190;5.732;2024-03-02T16:06:15;1.10;;;0.60;;
15669;SDS011;18524;45.190;5.732;2024-03-02T16:11:05;1.87;;;0.57;;
15669;SDS011;18524;45.190;5.732;2024-03-02T16:15:56;0.67;;;0.50;;
15669;SDS011;18524;45.190;5.732;2024-03-02T16:20:46;1.40;;;0.70;;
15669;SDS011;18524;45.190;5.732;2024-03-02T16:25:37;0.70;;;0.60;;
15669;SDS011;18524;45.190;5.732;2024-03-02T16:30:27;1.17;;;0.70;;
15669;SDS011;18524;45.190;5.732;2024-03-02T16:35:17;0.70;;;0.50;;
15669;SDS011;18524;45.190;5.732;2024-03-02T16:40:08;1.30;;;0.80;;
15669;SDS011;18524;45.190;5.732;2024-03-02T16:44:59;1.40;;;0.93;;
15669;SDS011;18524;45.190;5.732;2024-03-02T16:49:49;2.13;;;1.00;;
15669;SDS011;18524;45.190;5.732;2024-03-02T16:54:40;1.47;;;0.90;;
15669;SDS011;18524;45.190;5.732;2024-03-02T16:59:30;3.33;;;1.00;;
15669;SDS011;18524;45.190;5.732;2024-03-02T17:04:20;1.47;;;0.80;;
15669;SDS011;18524;45.190;5.732;2024-03-02T17:09:11;1.53;;;1.00;;
15669;SDS011;18524;45.190;5.732;2024-03-02T17:14:02;1.53;;;1.00;;
15669;SDS011;18524;45.190;5.732;2024-03-02T17:18:53;1.20;;;0.90;;
15669;SDS011;18524;45.190;5.732;2024-03-02T17:23:43;1.30;;;0.93;;
15669;SDS011;18524;45.190;5.732;2024-03-02T17:28:34;1.20;;;0.90;;
15669;SDS011;18524;45.190;5.732;2024-03-02T17:33:24;2.43;;;1.00;;
15669;SDS011;18524;45.190;5.732;2024-03-02T17:38:14;2.30;;;1.10;;
15669;SDS011;18524;45.190;5.732;2024-03-02T17:43:05;2.87;;;1.20;;
15669;SDS011;18524;45.190;5.732;2024-03-02T17:47:55;3.70;;;1.17;;
15669;SDS011;18524;45.190;5.732;2024-03-02T17:52:46;2.50;;;1.50;;
15669;SDS011;18524;45.190;5.732;2024-03-02T17:57:37;2.80;;;1.10;;
15669;SDS011;18524;45.190;5.732;2024-03-02T18:02:28;1.83;;;0.90;;
15669;SDS011;18524;45.190;5.732;2024-03-02T18:07:19;1.33;;;0.97;;
15669;SDS011;18524;45.190;5.732;2024-03-02T18:12:10;2.23;;;1.00;;
15669;SDS011;18524;45.190;5.732;2024-03-02T18:17:00;1.97;;;1.10;;
15669;SDS011;18524;45.190;5.732;2024-03-02T18:21:51;3.07;;;1.03;;
15669;SDS011;18524;45.190;5.732;2024-03-02T18:26:41;3.27;;;1.30;;
15669;SDS011;18524;45.190;5.732;2024-03-02T18:31:31;2.27;;;1.10;;
15669;SDS011;18524;45.190;5.732;2024-03-02T18:36:21;1.90;;;1.17;;
15669;SDS011;18524;45.190;5.732;2024-03-02T18:41:12;3.10;;;1.63;;
15669;SDS011;18524;45.190;5.732;2024-03-02T18:46:05;2.43;;;1.00;;
15669;SDS011;18524;45.190;5.732;2024-03-02T18:50:56;2.43;;;1.00;;
15669;SDS011;18524;45.190;5.732;2024-03-02T18:55:47;2.40;;;0.87;;
15669;SDS011;18524;45.190;5.732;2024-03-02T19:00:37;5.93;;;1.20;;
15669;SDS011;18524;45.190;5.732;2024-03-02T19:05:28;2.43;;;1.40;;
15669;SDS011;18524;45.190;5.732;2024-03-02T19:10:18;2.77;;;0.90;;
15669;SDS011;18524;45.190;5.732;2024-03-02T19:15:09;3.13;;;1.20;;
15669;SDS011;18524;45.190;5.732;2024-03-02T19:20:01;1.97;;;1.00;;
15669;SDS011;18524;45.190;5.732;2024-03-02T19:24:52;1.90;;;1.20;;
15669;SDS011;18524;45.190;5.732;2024-03-02T19:29:43;2.10;;;1.00;;
15669;SDS011;18524;45.190;5.732;2024-03-02T19:34:34;2.53;;;1.00;;
15669;SDS011;18524;45.190;5.732;2024-03-02T19:39:25;2.50;;;0.90;;
15669;SDS011;18524;45.190;5.732;2024-03-02T19:44:20;2.67;;;1.30;;
15669;SDS011;18524;45.190;5.732;2024-03-02T19:49:13;3.63;;;1.03;;
15669;SDS011;18524;45.190;5.732;2024-03-02T19:54:05;2.20;;;1.20;;
15669;SDS011;18524;45.190;5.732;2024-03-02T19:58:55;2.00;;;1.03;;
15669;SDS011;18524;45.190;5.732;2024-03-02T20:03:46;1.27;;;1.07;;
15669;SDS011;18524;45.190;5.732;2024-03-02T20:08:39;2.77;;;1.27;;
15669;SDS011;18524;45.190;5.732;2024-03-02T20:13:30;2.70;;;1.40;;
15669;SDS011;18524;45.190;5.732;2024-03-02T20:18:20;3.50;;;1.00;;
15669;SDS011;18524;45.190;5.732;2024-03-02T20:23:10;2.50;;;1.27;;
15669;SDS011;18524;45.190;5.732;2024-03-02T20:28:01;3.23;;;1.37;;
15669;SDS011;18524;45.190;5.732;2024-03-02T20:32:51;1.50;;;1.20;;
15669;SDS011;18524;45.190;5.732;2024-03-02T20:37:41;1.90;;;1.10;;
15669;SDS011;18524;45.190;5.732;2024-03-02T20:42:32;2.70;;;1.03;;
15669;SDS011;18524;45.190;5.732;2024-03-02T20:47:22;2.50;;;1.13;;
15669;SDS011;18524;45.190;5.732;2024-03-02T20:52:12;2.07;;;1.17;;
15669;SDS011;18524;45.190;5.732;2024-03-02T20:57:03;3.03;;;1.30;;
15669;SDS011;18524;45.190;5.732;2024-03-02T21:01:56;3.43;;;1.20;;
15669;SDS011;18524;45.190;5.732;2024-03-02T21:06:46;1.40;;;1.00;;
15669;SDS011;18524;45.190;5.732;2024-03-02T21:11:37;3.27;;;1.27;;
15669;SDS011;18524;45.190;5.732;2024-03-02T21:16:28;3.03;;;1.00;;
15669;SDS011;18524;45.190;5.732;2024-03-02T21:21:18;2.90;;;1.30;;
15669;SDS011;18524;45.190;5.732;2024-03-02T21:26:08;2.53;;;1.00;;
15669;SDS011;18524;45.190;5.732;2024-03-02T21:30:59;2.23;;;0.90;;
15669;SDS011;18524;45.190;5.732;2024-03-02T21:35:49;2.97;;;1.30;;
15669;SDS011;18524;45.190;5.732;2024-03-02T21:40:39;3.47;;;1.40;;
15669;SDS011;18524;45.190;5.732;2024-03-02T21:45:30;1.63;;;0.90;;
15669;SDS011;18524;45.190;5.732;2024-03-02T21:50:20;1.70;;;1.30;;
15669;SDS011;18524;45.190;5.732;2024-03-02T21:55:10;3.70;;;0.93;;
15669;SDS011;18524;45.190;5.732;2024-03-02T22:00:01;2.40;;;0.93;;
15669;SDS011;18524;45.190;5.732;2024-03-02T22:04:52;2.37;;;0.80;;
15669;SDS011;18524;45.190;5.732;2024-03-02T22:09:43;2.77;;;0.90;;
15669;SDS011;18524;45.190;5.732;2024-03-02T22:14:34;2.70;;;0.97;;
15669;SDS011;18524;45.190;5.732;2024-03-02T22:19:24;2.63;;;0.73;;
15669;SDS011;18524;45.190;5.732;2024-03-02T22:24:14;1.63;;;0.80;;
15669;SDS011;18524;45.190;5.732;2024-03-02T22:29:05;1.53;;;0.70;;
15669;SDS011;18524;45.190;5.732;2024-03-02T22:33:55;1.67;;;0.80;;
15669;SDS011;18524;45.190;5.732;2024-03-02T22:38:46;2.00;;;0.50;;
15669;SDS011;18524;45.190;5.732;2024-03-02T22:43:36;0.80;;;0.37;;
15669;SDS011;18524;45.190;5.732;2024-03-02T22:48:26;1.30;;;0.50;;
15669;SDS011;18524;45.190;5.732;2024-03-02T22:53:17;1.37;;;0.60;;
15669;SDS011;18524;45.190;5.732;2024-03-02T22:58:07;1.77;;;0.43;;
15669;SDS011;18524;45.190;5.732;2024-03-02T23:02:57;1.27;;;0.40;;
15669;SDS011;18524;45.190;5.732;2024-03-02T23:07:48;1.43;;;0.40;;
15669;SDS011;18524;45.190;5.732;2024-03-02T23:12:38;0.57;;;0.30;;
15669;SDS011;18524;45.190;5.732;2024-03-02T23:17:29;0.70;;;0.40;;
15669;SDS011;18524;45.190;5.732;2024-03-02T23:22:20;1.13;;;0.40;;
15669;SDS011;18524;45.190;5.732;2024-03-02T23:27:12;0.70;;;0.30;;
15669;SDS011;18524;45.190;5.732;2024-03-02T23:32:03;0.50;;;0.20;;
15669;SDS011;18524;45.190;5.732;2024-03-02T23:36:53;0.40;;;0.20;;
15669;SDS011;18524;45.190;5.732;2024-03-02T23:41:44;1.17;;;0.27;;
15669;SDS011;18524;45.190;5.732;2024-03-02T23:46:35;0.50;;;0.20;;
15669;SDS011;18524;45.190;5.732;2024-03-02T23:51:25;0.30;;;0.20;;
15669;SDS011;18524;45.190;5.732;2024-03-02T23:56:15;0.50;;;0.20;;
